createdAt,value
2022-08-23T00:00:26.693Z,100.00
2022-08-23T00:05:34.966Z,100.00
2022-08-23T00:08:02.186Z,100.00
2022-08-23T00:10:29.666Z,100.00
2022-08-23T00:12:56.583Z,100.00
2022-08-23T00:15:23.806Z,100.00
2022-08-23T00:17:59.755Z,100.00
2022-08-23T00:20:29.769Z,100.00
2022-08-23T00:23:02.042Z,100.00
2022-08-23T00:25:29.054Z,100.00
2022-08-23T00:27:58.860Z,100.00
2022-08-23T00:30:29.061Z,100.00
2022-08-23T00:32:57.912Z,100.00
2022-08-23T00:35:27.637Z,100.00
2022-08-23T00:38:31.606Z,100.00
2022-08-23T00:40:51.222Z,100.00
2022-08-23T00:44:00.258Z,100.00
2022-08-23T00:47:11.729Z,100.00
2022-08-23T00:49:40.988Z,100.00
2022-08-23T00:52:17.769Z,100.00
2022-08-23T00:54:47.768Z,100.00
2022-08-23T00:57:19.462Z,100.00
2022-08-23T00:59:49.321Z,100.00
2022-08-23T01:02:17.526Z,100.00
2022-08-23T01:04:59.057Z,100.00
2022-08-23T01:08:01.793Z,100.00
2022-08-23T01:10:37.416Z,100.00
2022-08-23T01:13:27.415Z,100.00
2022-08-23T01:16:08.717Z,100.00
2022-08-23T01:18:42.074Z,100.00
2022-08-23T01:21:19.364Z,100.00
2022-08-23T01:24:03.608Z,100.00
2022-08-23T01:26:35.413Z,100.00
2022-08-23T01:29:10.952Z,100.00
2022-08-23T01:31:37.997Z,100.00
2022-08-23T01:34:10.484Z,100.00
2022-08-23T01:36:44.014Z,100.00
2022-08-23T01:39:11.518Z,100.00
2022-08-23T01:41:43.074Z,100.00
2022-08-23T01:44:13.001Z,100.00
2022-08-23T01:46:46.780Z,100.00
2022-08-23T01:49:14.325Z,100.00
2022-08-23T01:51:42.778Z,100.00
2022-08-23T01:54:12.485Z,100.00
2022-08-23T01:56:43.422Z,100.00
2022-08-23T01:59:13.687Z,100.00
2022-08-23T02:01:47.835Z,100.00
2022-08-23T02:04:16.552Z,100.00
2022-08-23T02:06:46.639Z,100.00
2022-08-23T02:09:22.284Z,100.00
2022-08-23T02:11:55.287Z,100.00
2022-08-23T02:14:22.460Z,100.00
2022-08-23T02:17:03.270Z,100.00
2022-08-23T02:19:46.895Z,100.00
2022-08-23T02:22:13.976Z,100.00
2022-08-23T02:24:44.719Z,100.00
2022-08-23T02:27:14.794Z,100.00
2022-08-23T02:29:47.446Z,100.00
2022-08-23T02:32:21.857Z,100.00
2022-08-23T02:35:05.063Z,100.00
2022-08-23T02:37:36.893Z,100.00
2022-08-23T02:40:06.061Z,100.00
2022-08-23T02:42:36.003Z,100.00
2022-08-23T02:45:11.244Z,100.00
2022-08-23T02:47:45.220Z,100.00
2022-08-23T02:50:28.708Z,100.00
2022-08-23T02:52:58.193Z,100.00
2022-08-23T02:55:29.139Z,100.00
2022-08-23T02:57:56.545Z,100.00
2022-08-23T03:00:30.028Z,100.00
2022-08-23T03:03:00.130Z,100.00
2022-08-23T03:05:44.750Z,100.00
2022-08-23T03:08:19.557Z,100.00
2022-08-23T03:10:51.252Z,100.00
2022-08-23T03:13:23.726Z,100.00
2022-08-23T03:15:52.090Z,100.00
2022-08-23T03:18:28.039Z,100.00
2022-08-23T03:21:06.663Z,100.00
2022-08-23T03:23:37.456Z,100.00
2022-08-23T03:26:06.496Z,100.00
2022-08-23T03:28:37.308Z,100.00
2022-08-23T03:31:04.993Z,100.00
2022-08-23T03:33:39.085Z,100.00
2022-08-23T03:36:18.014Z,100.00
2022-08-23T03:38:47.915Z,100.00
2022-08-23T03:41:17.355Z,100.00
2022-08-23T03:43:44.425Z,100.00
2022-08-23T03:46:34.445Z,100.00
2022-08-23T03:49:03.504Z,100.00
2022-08-23T03:51:44.257Z,100.00
2022-08-23T03:54:14.202Z,100.00
2022-08-23T03:57:04.066Z,100.00
2022-08-23T03:59:38.587Z,100.00
2022-08-23T04:02:09.187Z,100.00
2022-08-23T04:04:39.046Z,100.00
2022-08-23T04:07:32.865Z,100.00
2022-08-23T04:10:08.783Z,100.00
2022-08-23T04:15:27.481Z,100.00
2022-08-23T04:17:57.839Z,100.00
2022-08-23T04:20:25.281Z,100.00
2022-08-23T04:23:04.429Z,100.00
2022-08-23T04:25:40.099Z,100.00
2022-08-23T04:28:12.694Z,100.00
2022-08-23T04:30:42.593Z,100.00
2022-08-23T04:33:21.296Z,100.00
2022-08-23T04:35:52.548Z,100.00
2022-08-23T04:38:25.081Z,100.00
2022-08-23T04:41:15.164Z,100.00
2022-08-23T04:43:44.803Z,100.00
2022-08-23T04:46:21.539Z,100.00
2022-08-23T04:48:55.495Z,100.00
2022-08-23T04:51:25.675Z,100.00
2022-08-23T04:54:01.533Z,100.00
2022-08-23T04:56:50.992Z,100.00
2022-08-23T04:59:21.623Z,100.00
2022-08-23T05:01:50.873Z,100.00
2022-08-23T05:04:18.304Z,100.00
2022-08-23T05:06:47.528Z,100.00
2022-08-23T05:09:18.540Z,100.00
2022-08-23T05:11:54.664Z,100.00
2022-08-23T05:14:33.968Z,100.00
2022-08-23T05:17:08.396Z,100.00
2022-08-23T05:19:39.807Z,100.00
2022-08-23T05:22:18.675Z,100.00
2022-08-23T05:25:13.186Z,100.00
2022-08-23T05:27:46.567Z,100.00
2022-08-23T05:30:18.371Z,100.00
2022-08-23T05:32:46.624Z,100.00
2022-08-23T05:35:24.020Z,100.00
2022-08-23T05:37:50.867Z,100.00
2022-08-23T05:40:20.514Z,100.00
2022-08-23T05:45:45.277Z,100.00
2022-08-23T05:48:21.171Z,100.00
2022-08-23T05:50:57.003Z,100.00
2022-08-23T05:53:27.102Z,100.00
2022-08-23T05:55:58.587Z,100.00
2022-08-23T05:58:28.322Z,100.00
2022-08-23T06:01:00.951Z,100.00
2022-08-23T06:03:38.640Z,100.00
2022-08-23T06:06:09.316Z,100.00
2022-08-23T06:08:43.654Z,100.00
2022-08-23T06:11:25.501Z,100.00
2022-08-23T06:14:03.880Z,100.00
2022-08-23T06:16:36.378Z,100.00
2022-08-23T06:19:07.375Z,100.00
2022-08-23T06:22:00.214Z,100.00
2022-08-23T06:24:47.822Z,100.00
2022-08-23T06:27:24.639Z,100.00
2022-08-23T06:29:51.842Z,100.00
2022-08-23T06:32:46.625Z,100.00
2022-08-23T06:35:38.912Z,100.00
2022-08-23T06:38:25.610Z,100.00
2022-08-23T06:41:15.912Z,100.00
2022-08-23T06:44:14.264Z,100.00
2022-08-23T06:47:33.523Z,100.00
2022-08-23T06:50:07.528Z,100.00
2022-08-23T06:53:07.086Z,100.00
2022-08-23T06:56:01.881Z,100.00
2022-08-23T06:58:54.534Z,100.00
2022-08-23T07:01:47.203Z,100.00
2022-08-23T07:04:33.654Z,100.00
2022-08-23T07:07:37.466Z,100.00
2022-08-23T07:10:18.545Z,100.00
2022-08-23T07:12:46.125Z,100.00
2022-08-23T07:15:22.487Z,100.00
2022-08-23T07:17:53.430Z,100.00
2022-08-23T07:20:26.521Z,100.00
2022-08-23T07:22:59.148Z,100.00
2022-08-23T07:25:27.526Z,100.00
2022-08-23T07:27:59.121Z,100.00
2022-08-23T07:30:31.857Z,100.00
2022-08-23T07:33:02.714Z,100.00
2022-08-23T07:35:46.863Z,100.00
2022-08-23T07:38:19.693Z,100.00
2022-08-23T07:40:54.149Z,100.00
2022-08-23T07:43:34.465Z,100.00
2022-08-23T07:46:04.294Z,100.00
2022-08-23T07:48:55.118Z,100.00
2022-08-23T07:51:33.770Z,100.00
2022-08-23T07:54:07.899Z,100.00
2022-08-23T07:56:44.183Z,100.00
2022-08-23T07:59:46.541Z,100.00
2022-08-23T08:02:34.905Z,100.00
2022-08-23T08:05:10.125Z,100.00
2022-08-23T08:07:44.161Z,97.92
2022-08-23T08:10:19.565Z,100.00
2022-08-23T08:12:59.127Z,100.00
2022-08-23T08:15:27.308Z,99.99
2022-08-23T08:18:05.074Z,99.39
2022-08-23T08:21:04.849Z,100.00
2022-08-23T08:24:17.734Z,100.00
2022-08-23T08:26:54.427Z,98.45
2022-08-23T08:29:21.458Z,100.00
2022-08-23T08:31:59.766Z,100.00
2022-08-23T08:34:29.806Z,97.56
2022-08-23T08:37:02.718Z,98.29
2022-08-23T08:39:45.825Z,100.00
2022-08-23T08:42:44.676Z,95.93
2022-08-23T08:45:58.884Z,92.04
2022-08-23T08:48:49.862Z,98.96
2022-08-23T08:51:59.714Z,94.91
2022-08-23T08:54:29.516Z,93.52
2022-08-23T08:57:01.387Z,98.05
2022-08-23T09:00:00.766Z,100.00
2022-08-23T09:02:45.038Z,99.96
2022-08-23T09:05:22.281Z,100.00
2022-08-23T09:08:22.994Z,92.98
2022-08-23T09:11:17.740Z,88.62
2022-08-23T09:14:28.139Z,91.52
2022-08-23T09:17:11.961Z,90.98
2022-08-23T09:19:42.679Z,91.30
2022-08-23T09:22:31.352Z,91.14
2022-08-23T09:25:07.986Z,90.01
2022-08-23T09:28:04.585Z,90.90
2022-08-23T09:31:08.243Z,93.68
2022-08-23T09:33:47.086Z,94.20
2022-08-23T09:36:41.896Z,93.03
2022-08-23T09:39:31.234Z,96.09
2022-08-23T09:42:04.785Z,98.77
2022-08-23T09:44:49.670Z,95.84
2022-08-23T09:47:23.928Z,95.97
2022-08-23T09:49:59.553Z,96.02
2022-08-23T09:52:35.427Z,95.18
2022-08-23T09:55:26.035Z,91.55
2022-08-23T09:58:00.137Z,88.97
2022-08-23T10:00:38.463Z,91.24
2022-08-23T10:03:23.520Z,86.18
2022-08-23T10:06:10.858Z,88.47
2022-08-23T10:08:55.971Z,81.85
2022-08-23T10:11:29.424Z,86.24
2022-08-23T10:14:10.246Z,91.03
2022-08-23T10:17:07.614Z,89.31
2022-08-23T10:19:47.849Z,84.84
2022-08-23T10:22:27.670Z,84.22
2022-08-23T10:25:41.658Z,85.98
2022-08-23T10:28:41.749Z,83.57
2022-08-23T10:31:40.762Z,87.52
2022-08-23T10:34:50.761Z,86.56
2022-08-23T10:37:50.809Z,89.97
2022-08-23T10:40:49.981Z,84.96
2022-08-23T10:43:33.145Z,86.62
2022-08-23T10:46:03.728Z,84.88
2022-08-23T10:48:53.965Z,82.12
2022-08-23T10:51:46.312Z,83.44
2022-08-23T10:54:24.142Z,82.20
2022-08-23T10:57:03.751Z,75.92
2022-08-23T10:59:37.090Z,79.62
2022-08-23T11:02:45.165Z,82.08
2022-08-23T11:05:27.253Z,81.67
2022-08-23T11:08:08.930Z,77.40
2022-08-23T11:10:56.161Z,78.43
2022-08-23T11:13:35.277Z,78.77
2022-08-23T11:16:25.469Z,77.24
2022-08-23T11:18:55.269Z,81.38
2022-08-23T11:21:45.933Z,80.19
2022-08-23T11:24:17.723Z,80.52
2022-08-23T11:26:44.932Z,81.64
2022-08-23T11:29:33.492Z,80.56
2022-08-23T11:32:26.875Z,81.36
2022-08-23T11:35:27.610Z,79.69
2022-08-23T11:38:05.250Z,80.50
2022-08-23T11:40:49.667Z,77.96
2022-08-23T11:43:36.477Z,79.61
2022-08-23T11:46:28.352Z,77.95
2022-08-23T11:49:21.445Z,76.30
2022-08-23T11:52:18.430Z,76.08
2022-08-23T11:55:17.758Z,73.31
2022-08-23T11:58:20.776Z,76.13
2022-08-23T12:01:11.563Z,72.82
2022-08-23T12:04:01.706Z,75.27
2022-08-23T12:06:50.990Z,69.17
2022-08-23T12:09:21.355Z,71.57
2022-08-23T12:11:56.964Z,70.46
2022-08-23T12:14:32.863Z,73.23
2022-08-23T12:17:04.103Z,71.99
2022-08-23T12:19:40.500Z,72.00
2022-08-23T12:22:18.602Z,67.92
2022-08-23T12:24:56.039Z,70.84
2022-08-23T12:27:53.223Z,63.88
2022-08-23T12:30:41.078Z,67.77
2022-08-23T12:34:15.813Z,66.07
2022-08-23T12:36:54.443Z,64.18
2022-08-23T12:39:31.609Z,64.05
2022-08-23T12:42:09.342Z,66.38
2022-08-23T12:44:39.433Z,64.32
2022-08-23T12:47:26.902Z,67.43
2022-08-23T12:50:01.937Z,68.79
2022-08-23T12:52:32.527Z,65.54
2022-08-23T12:55:02.072Z,61.74
2022-08-23T12:57:36.893Z,62.17
2022-08-23T13:00:28.854Z,61.06
2022-08-23T13:03:06.306Z,60.57
2022-08-23T13:06:06.291Z,63.20
2022-08-23T13:08:52.498Z,61.64
2022-08-23T13:11:23.619Z,58.94
2022-08-23T13:13:53.723Z,59.52
2022-08-23T13:16:43.335Z,63.27
2022-08-23T13:19:32.791Z,63.40
2022-08-23T13:22:22.319Z,63.32
2022-08-23T13:25:27.553Z,62.43
2022-08-23T13:28:01.123Z,57.61
2022-08-23T13:30:34.565Z,56.92
2022-08-23T13:33:21.933Z,57.95
2022-08-23T13:36:13.096Z,55.60
2022-08-23T13:38:49.831Z,60.67
2022-08-23T13:41:39.342Z,59.23
2022-08-23T13:44:12.087Z,54.29
2022-08-23T13:46:52.542Z,55.42
2022-08-23T13:49:39.740Z,54.51
2022-08-23T13:55:03.651Z,55.28
2022-08-23T13:57:47.640Z,56.89
2022-08-23T14:00:19.590Z,55.10
2022-08-23T14:02:49.218Z,59.37
2022-08-23T14:05:25.120Z,58.72
2022-08-23T14:07:57.427Z,59.83
2022-08-23T14:10:32.792Z,61.15
2022-08-23T14:13:05.721Z,58.33
2022-08-23T14:15:56.545Z,59.96
2022-08-23T14:18:28.300Z,60.77
2022-08-23T14:21:04.173Z,60.87
2022-08-23T14:23:34.054Z,61.54
2022-08-23T14:26:03.915Z,63.71
2022-08-23T14:28:33.143Z,67.20
2022-08-23T14:31:03.797Z,62.99
2022-08-23T14:33:33.844Z,61.57
2022-08-23T14:36:05.041Z,60.50
2022-08-23T14:38:44.216Z,64.38
2022-08-23T14:41:21.441Z,62.38
2022-08-23T14:43:50.299Z,62.03
2022-08-23T14:46:28.241Z,64.19
2022-08-23T14:48:55.369Z,68.28
2022-08-23T14:51:35.307Z,64.21
2022-08-23T14:54:13.962Z,65.22
2022-08-23T14:57:01.031Z,65.49
2022-08-23T14:59:39.775Z,62.75
2022-08-23T15:02:20.701Z,65.57
2022-08-23T15:05:06.051Z,63.17
2022-08-23T15:07:32.921Z,62.25
2022-08-23T15:10:11.783Z,62.07
2022-08-23T15:13:12.878Z,65.51
2022-08-23T15:15:42.052Z,64.57
2022-08-23T15:18:09.666Z,64.90
2022-08-23T15:20:41.190Z,65.23
2022-08-23T15:23:14.559Z,68.98
2022-08-23T15:25:46.933Z,66.74
2022-08-23T15:28:27.111Z,65.51
2022-08-23T15:31:08.743Z,67.07
2022-08-23T15:33:43.960Z,68.59
2022-08-23T15:36:13.590Z,68.74
2022-08-23T15:41:36.174Z,69.32
2022-08-23T15:44:06.658Z,68.98
2022-08-23T15:46:51.617Z,69.54
2022-08-23T15:49:35.798Z,70.52
2022-08-23T15:52:05.223Z,70.38
2022-08-23T15:54:40.950Z,68.04
2022-08-23T15:57:28.613Z,68.92
2022-08-23T16:00:01.409Z,67.89
2022-08-23T16:03:06.510Z,67.35
2022-08-23T16:05:31.093Z,66.52
2022-08-23T16:08:15.341Z,64.52
2022-08-23T16:10:42.243Z,62.85
2022-08-23T16:13:16.020Z,63.92
2022-08-23T16:15:46.548Z,61.43
2022-08-23T16:18:22.777Z,62.71
2022-08-23T16:20:54.358Z,62.22
2022-08-23T16:23:23.642Z,60.35
2022-08-23T16:26:06.978Z,59.68
2022-08-23T16:28:37.773Z,59.54
2022-08-23T16:31:07.967Z,58.56
2022-08-23T16:33:37.588Z,57.68
2022-08-23T16:36:14.050Z,57.86
2022-08-23T16:38:51.104Z,59.00
2022-08-23T16:41:30.135Z,58.72
2022-08-23T16:44:02.046Z,59.65
2022-08-23T16:46:37.155Z,59.06
2022-08-23T16:49:12.764Z,59.36
2022-08-23T16:51:39.539Z,59.56
2022-08-23T16:54:12.620Z,62.09
2022-08-23T16:56:47.864Z,64.75
2022-08-23T16:59:23.266Z,68.52
2022-08-23T17:01:59.136Z,72.68
2022-08-23T17:04:32.931Z,76.93
2022-08-23T17:07:09.028Z,79.09
2022-08-23T17:09:46.574Z,81.63
2022-08-23T17:12:17.916Z,84.52
2022-08-23T17:14:53.643Z,86.61
2022-08-23T17:17:39.696Z,88.90
2022-08-23T17:20:17.097Z,90.31
2022-08-23T17:22:49.858Z,91.23
2022-08-23T17:25:27.553Z,93.08
2022-08-23T17:30:40.898Z,97.18
2022-08-23T17:33:11.930Z,98.90
2022-08-23T17:36:00.715Z,98.70
2022-08-23T17:38:33.202Z,98.72
2022-08-23T17:41:08.510Z,100.00
2022-08-23T17:43:39.588Z,100.00
2022-08-23T17:46:06.669Z,100.00
2022-08-23T17:48:35.834Z,100.00
2022-08-23T17:51:06.557Z,100.00
2022-08-23T17:53:39.104Z,100.00
2022-08-23T17:56:12.201Z,100.00
2022-08-23T17:59:03.294Z,100.00
2022-08-23T18:01:30.380Z,100.00
2022-08-23T18:04:09.227Z,100.00
2022-08-23T18:06:39.546Z,100.00
2022-08-23T18:09:12.654Z,100.00
2022-08-23T18:11:41.443Z,100.00
2022-08-23T18:14:17.472Z,100.00
2022-08-23T18:16:59.814Z,100.00
2022-08-23T18:19:32.683Z,100.00
2022-08-23T18:22:03.417Z,100.00
2022-08-23T18:24:35.539Z,100.00
2022-08-23T18:27:27.304Z,100.00
2022-08-23T18:30:03.271Z,100.00
2022-08-23T18:32:36.145Z,100.00
2022-08-23T18:35:06.611Z,100.00
2022-08-23T18:37:36.324Z,100.00
2022-08-23T18:40:35.878Z,100.00
2022-08-23T18:43:09.943Z,100.00
2022-08-23T18:46:12.806Z,100.00
2022-08-23T18:48:53.373Z,100.00
2022-08-23T18:51:24.862Z,100.00
2022-08-23T18:53:59.060Z,100.00
2022-08-23T18:56:47.531Z,100.00
2022-08-23T18:59:26.357Z,100.00
2022-08-23T19:02:04.876Z,100.00
2022-08-23T19:04:40.626Z,100.00
2022-08-23T19:07:14.186Z,100.00
2022-08-23T19:09:47.514Z,100.00
2022-08-23T19:12:22.658Z,100.00
2022-08-23T19:14:54.704Z,100.00
2022-08-23T19:17:25.160Z,100.00
2022-08-23T19:19:55.239Z,100.00
2022-08-23T19:22:27.554Z,100.00
2022-08-23T19:24:57.326Z,100.00
2022-08-23T19:27:30.109Z,100.00
2022-08-23T19:30:01.075Z,100.00
2022-08-23T19:32:28.382Z,100.00
2022-08-23T19:34:55.965Z,100.00
2022-08-23T19:37:28.761Z,100.00
2022-08-23T19:39:58.982Z,100.00
2022-08-23T19:42:32.822Z,100.00
2022-08-23T19:45:08.822Z,100.00
2022-08-23T19:47:35.992Z,100.00
2022-08-23T19:50:11.527Z,100.00
2022-08-23T19:52:41.278Z,100.00
2022-08-23T19:55:12.129Z,100.00
2022-08-23T19:57:49.249Z,100.00
2022-08-23T20:00:20.688Z,100.00
2022-08-23T20:02:53.939Z,100.00
2022-08-23T20:05:20.949Z,100.00
2022-08-23T20:07:53.925Z,100.00
2022-08-23T20:10:26.003Z,100.00
2022-08-23T20:12:59.047Z,100.00
2022-08-23T20:15:32.196Z,100.00
2022-08-23T20:18:01.474Z,100.00
2022-08-23T20:20:42.948Z,100.00
2022-08-23T20:23:33.960Z,100.00
2022-08-23T20:26:00.909Z,100.00
2022-08-23T20:28:33.503Z,100.00
2022-08-23T20:31:32.033Z,100.00
2022-08-23T20:34:05.189Z,100.00
2022-08-23T20:36:40.287Z,100.00
2022-08-23T20:39:20.401Z,100.00
2022-08-23T20:41:54.363Z,100.00
2022-08-23T20:44:36.279Z,100.00
2022-08-23T20:47:09.173Z,100.00
2022-08-23T20:49:36.741Z,100.00
2022-08-23T20:52:09.043Z,100.00
2022-08-23T20:54:38.426Z,100.00
2022-08-23T20:57:16.884Z,100.00
2022-08-23T20:59:45.211Z,100.00
2022-08-23T21:02:20.037Z,100.00
2022-08-23T21:04:49.948Z,100.00
2022-08-23T21:07:19.854Z,100.00
2022-08-23T21:09:50.987Z,100.00
2022-08-23T21:12:25.675Z,100.00
2022-08-23T21:15:01.509Z,100.00
2022-08-23T21:17:34.124Z,100.00
2022-08-23T21:20:07.926Z,100.00
2022-08-23T21:22:37.747Z,100.00
2022-08-23T21:25:12.247Z,100.00
2022-08-23T21:27:39.241Z,100.00
2022-08-23T21:30:10.144Z,100.00
2022-08-23T21:32:42.980Z,100.00
2022-08-23T21:35:15.881Z,100.00
2022-08-23T21:37:53.504Z,100.00
2022-08-23T21:40:26.342Z,100.00
2022-08-23T21:43:02.318Z,100.00
2022-08-23T21:45:32.740Z,100.00
2022-08-23T21:48:01.509Z,100.00
2022-08-23T21:50:36.152Z,100.00
2022-08-23T21:53:04.317Z,100.00
2022-08-23T21:55:37.206Z,100.00
2022-08-23T21:58:08.414Z,100.00
2022-08-23T22:00:48.023Z,100.00
2022-08-23T22:03:15.131Z,100.00
2022-08-23T22:05:46.963Z,100.00
2022-08-23T22:08:14.727Z,100.00
2022-08-23T22:10:56.773Z,100.00
2022-08-23T22:13:31.590Z,100.00
2022-08-23T22:15:58.561Z,100.00
2022-08-23T22:18:25.566Z,100.00
2022-08-23T22:20:56.884Z,100.00
2022-08-23T22:23:27.992Z,100.00
2022-08-23T22:26:03.769Z,100.00
2022-08-23T22:28:36.547Z,100.00
2022-08-23T22:31:11.645Z,100.00
2022-08-23T22:33:46.307Z,100.00
2022-08-23T22:36:17.702Z,100.00
2022-08-23T22:38:48.154Z,100.00
2022-08-23T22:41:26.719Z,100.00
2022-08-23T22:43:57.116Z,100.00
2022-08-23T22:46:38.327Z,100.00
2022-08-23T22:49:07.878Z,100.00
2022-08-23T22:51:37.529Z,100.00
2022-08-23T22:54:12.523Z,100.00
2022-08-23T22:56:48.133Z,100.00
2022-08-23T22:59:16.627Z,100.00
2022-08-23T23:01:50.185Z,100.00
2022-08-23T23:04:26.522Z,100.00
2022-08-23T23:07:00.426Z,100.00
2022-08-23T23:09:30.388Z,100.00
2022-08-23T23:12:05.326Z,100.00
2022-08-23T23:14:37.233Z,100.00
2022-08-23T23:17:12.429Z,100.00
2022-08-23T23:20:08.293Z,100.00
2022-08-23T23:22:38.140Z,100.00
2022-08-23T23:25:08.906Z,100.00
2022-08-23T23:27:38.403Z,100.00
2022-08-23T23:30:05.804Z,100.00
2022-08-23T23:32:38.398Z,100.00
2022-08-23T23:35:12.084Z,100.00
2022-08-23T23:37:47.747Z,100.00
2022-08-23T23:40:17.456Z,100.00
2022-08-23T23:42:55.106Z,100.00
2022-08-23T23:45:25.788Z,100.00
2022-08-23T23:47:53.088Z,100.00
2022-08-23T23:50:23.167Z,100.00
2022-08-23T23:52:51.109Z,100.00
2022-08-23T23:55:22.207Z,100.00
2022-08-23T23:57:52.231Z,100.00
